Time;durP1;ratioP1;P1;durP2;ratioP2;P2;SDS_P1;SDS_P2;PMS_P1;PMS_P2;Temp;Humidity;BMP_temperature;BMP_pressure;BME280_temperature;BME280_humidity;BME280_pressure;Samples;Min_cycle;Max_cycle;Signal;HPM_P1;HPM_P2
2023/05/31 00:01:23;;;;;;;8.50;5.10;;;;;;;17.92;100.00;100673.42;106784;1282;58485;-81
2023/05/31 00:03:49;;;;;;;9.20;5.30;;;;;;;17.86;100.00;100674.88;107082;1282;58336;-81
2023/05/31 00:06:14;;;;;;;15.70;5.20;;;;;;;17.81;100.00;100674.32;106730;1282;61408;-81
2023/05/31 00:08:40;;;;;;;13.50;5.50;;;;;;;17.78;100.00;100670.90;107103;1282;58543;-81
2023/05/31 00:11:07;;;;;;;12.80;4.80;;;;;;;17.74;100.00;100668.69;107056;1282;58481;-81
2023/05/31 00:13:33;;;;;;;12.10;5.10;;;;;;;17.68;100.00;100672.62;107068;1283;58309;-81
2023/05/31 00:15:59;;;;;;;10.80;5.30;;;;;;;17.66;100.00;100673.95;106907;1282;58237;-81
2023/05/31 00:18:24;;;;;;;12.70;5.30;;;;;;;17.60;100.00;100673.76;107045;1284;58147;-81
2023/05/31 00:20:50;;;;;;;11.50;5.70;;;;;;;17.53;100.00;100673.91;107121;1282;58294;-81
2023/05/31 00:23:15;;;;;;;10.40;5.60;;;;;;;17.51;100.00;100671.13;106999;1282;73455;-81
2023/05/31 00:25:41;;;;;;;10.40;4.80;;;;;;;17.42;100.00;100668.08;107095;1282;58154;-82
2023/05/31 00:28:06;;;;;;;13.10;5.70;;;;;;;17.37;100.00;100666.40;107035;1282;58259;-81
2023/05/31 00:30:32;;;;;;;13.70;5.70;;;;;;;17.34;100.00;100666.02;107028;1282;58205;-81
2023/05/31 00:32:58;;;;;;;11.10;5.60;;;;;;;17.29;100.00;100667.73;107070;1282;58186;-81
2023/05/31 00:35:23;;;;;;;17.10;6.20;;;;;;;17.33;100.00;100668.48;107006;1282;62668;-81
2023/05/31 00:37:49;;;;;;;11.90;5.60;;;;;;;17.32;100.00;100669.55;107062;1283;58329;-81
2023/05/31 00:40:14;;;;;;;14.40;6.00;;;;;;;17.31;100.00;100672.73;107087;1282;58269;-81
2023/05/31 00:42:40;;;;;;;19.70;6.50;;;;;;;17.29;100.00;100669.50;106939;1282;58368;-81
2023/05/31 00:45:06;;;;;;;13.80;5.40;;;;;;;17.23;100.00;100670.97;106714;1282;58295;-81
2023/05/31 00:47:32;;;;;;;11.40;5.60;;;;;;;17.23;100.00;100674.03;107068;1282;61354;-81
2023/05/31 00:49:58;;;;;;;11.40;6.40;;;;;;;17.22;100.00;100676.70;107088;1282;58269;-81
2023/05/31 00:52:25;;;;;;;12.60;5.40;;;;;;;17.24;100.00;100672.63;107054;1282;58451;-81
2023/05/31 00:54:51;;;;;;;10.80;5.90;;;;;;;17.26;100.00;100672.01;106943;1282;58402;-80
2023/05/31 00:57:16;;;;;;;11.10;5.90;;;;;;;17.25;100.00;100673.98;106700;1283;58313;-81
2023/05/31 00:59:42;;;;;;;13.50;5.40;;;;;;;17.27;100.00;100672.92;107083;1282;58474;-81
2023/05/31 01:02:11;;;;;;;15.30;5.60;;;;;;;17.29;100.00;100673.48;107051;1283;58435;-81
2023/05/31 01:04:37;;;;;;;9.90;5.20;;;;;;;17.28;100.00;100675.90;107077;1282;58199;-80
2023/05/31 01:07:03;;;;;;;11.30;5.10;;;;;;;17.25;100.00;100680.78;107011;1282;58232;-81
2023/05/31 01:09:30;;;;;;;18.30;5.70;;;;;;;17.22;100.00;100679.87;107042;1282;58247;-80
2023/05/31 01:12:00;;;;;;;11.80;5.10;;;;;;;17.15;100.00;100684.85;107054;1282;58690;-80
2023/05/31 01:14:40;;;;;;;17.30;5.60;;;;;;;17.07;100.00;100688.77;107013;1282;73677;-80
2023/05/31 01:17:13;;;;;;;13.00;4.80;;;;;;;17.02;100.00;100690.48;106972;1282;74132;-80
2023/05/31 01:19:47;;;;;;;15.10;5.20;;;;;;;16.99;100.00;100688.77;107030;1282;72610;-80
2023/05/31 01:22:20;;;;;;;10.90;5.40;;;;;;;16.99;100.00;100691.09;107000;1282;61625;-80
2023/05/31 01:25:20;;;;;;;10.00;5.10;;;;;;;16.98;100.00;100691.48;107029;1282;59927;-80
2023/05/31 01:27:46;;;;;;;15.10;5.90;;;;;;;16.95;100.00;100694.65;107046;1282;73641;-81
2023/05/31 01:30:16;;;;;;;14.30;5.80;;;;;;;16.89;100.00;100697.75;107028;1283;58274;-80
2023/05/31 01:32:42;;;;;;;11.80;5.40;;;;;;;16.90;100.00;100697.30;106908;1282;72200;-81
2023/05/31 01:35:08;;;;;;;13.50;5.50;;;;;;;16.89;100.00;100695.73;107040;1285;58227;-81
2023/05/31 01:37:34;;;;;;;15.90;6.20;;;;;;;16.87;100.00;100694.95;107053;1282;58342;-80
2023/05/31 01:40:00;;;;;;;14.20;6.20;;;;;;;16.81;100.00;100688.34;107068;1282;58290;-81
2023/05/31 01:42:27;;;;;;;15.80;6.50;;;;;;;16.75;100.00;100694.16;107047;1282;58395;-81
2023/05/31 01:44:54;;;;;;;13.20;6.00;;;;;;;16.76;100.00;100692.79;107034;1283;58221;-81
2023/05/31 01:47:21;;;;;;;11.50;6.40;;;;;;;16.79;100.00;100695.37;107045;1282;58535;-80
2023/05/31 01:49:47;;;;;;;13.40;6.10;;;;;;;16.80;100.00;100692.63;107082;1282;58547;-80
2023/05/31 01:52:16;;;;;;;13.40;7.00;;;;;;;16.80;100.00;100695.29;107018;1282;58155;-81
2023/05/31 01:54:42;;;;;;;14.90;6.10;;;;;;;16.78;100.00;100700.00;107044;1282;74303;-81
2023/05/31 01:57:09;;;;;;;16.20;7.60;;;;;;;16.78;100.00;100701.98;107059;1283;58304;-81
2023/05/31 01:59:36;;;;;;;15.40;6.90;;;;;;;16.76;100.00;100702.70;107042;1282;58257;-81
2023/05/31 02:02:03;;;;;;;15.40;7.00;;;;;;;16.75;100.00;100702.80;107037;1283;60028;-80
2023/05/31 02:04:28;;;;;;;14.60;7.50;;;;;;;16.75;100.00;100705.21;107017;1283;58677;-80
2023/05/31 02:06:54;;;;;;;13.50;7.50;;;;;;;16.72;100.00;100707.66;107068;1282;58288;-81
2023/05/31 02:09:21;;;;;;;12.80;7.30;;;;;;;16.72;100.00;100708.73;107036;1282;58552;-80
2023/05/31 02:11:46;;;;;;;18.10;7.50;;;;;;;16.71;100.00;100711.09;106626;1282;58261;-81
2023/05/31 02:14:12;;;;;;;19.80;7.80;;;;;;;16.65;100.00;100711.69;107094;1282;58259;-81
2023/05/31 02:16:37;;;;;;;16.10;7.60;;;;;;;16.66;100.00;100713.95;107113;1283;58246;-80
2023/05/31 02:19:03;;;;;;;17.60;8.90;;;;;;;16.62;100.00;100714.08;107025;1283;73449;-80
2023/05/31 02:21:28;;;;;;;19.30;8.40;;;;;;;16.60;100.00;100717.15;106717;1282;58244;-80
2023/05/31 02:23:54;;;;;;;19.50;9.00;;;;;;;16.61;100.00;100723.38;107056;1282;58669;-80
2023/05/31 02:26:21;;;;;;;19.60;8.40;;;;;;;16.68;100.00;100728.41;107078;1282;58166;-81
2023/05/31 02:28:47;;;;;;;18.00;8.60;;;;;;;16.70;100.00;100729.06;107108;1284;58292;-81
2023/05/31 02:31:13;;;;;;;15.40;7.90;;;;;;;16.73;100.00;100732.12;107046;1282;58647;-81
2023/05/31 02:33:41;;;;;;;13.70;7.70;;;;;;;16.75;100.00;100733.94;107095;1283;59078;-81
2023/05/31 02:36:08;;;;;;;17.10;7.70;;;;;;;16.82;100.00;100737.39;106801;1282;343004;-81
2023/05/31 02:38:33;;;;;;;15.90;8.30;;;;;;;16.89;100.00;100739.34;107058;1283;58205;-81
2023/05/31 02:40:59;;;;;;;13.00;7.80;;;;;;;16.96;100.00;100740.30;107058;1282;58226;-81
2023/05/31 02:43:24;;;;;;;20.70;8.30;;;;;;;17.05;100.00;100742.38;107028;1282;58210;-81
2023/05/31 02:45:50;;;;;;;15.00;8.10;;;;;;;17.12;100.00;100745.63;106935;1283;59195;-81
2023/05/31 02:48:16;;;;;;;12.40;6.90;;;;;;;17.16;100.00;100751.60;106672;1282;58417;-81
2023/05/31 02:50:41;;;;;;;15.30;7.20;;;;;;;17.26;100.00;100752.30;106805;1282;72519;-81
2023/05/31 02:53:07;;;;;;;17.00;6.90;;;;;;;17.28;100.00;100756.35;107068;1282;58553;-82
2023/05/31 02:55:32;;;;;;;11.90;7.00;;;;;;;17.29;100.00;100756.21;107083;1283;58283;-82
2023/05/31 02:57:58;;;;;;;15.10;6.70;;;;;;;17.33;100.00;100755.50;107080;1283;58186;-81
2023/05/31 03:00:25;;;;;;;12.10;6.60;;;;;;;17.38;100.00;100753.81;107039;1283;58333;-82
2023/05/31 03:02:52;;;;;;;15.60;6.70;;;;;;;17.48;100.00;100755.37;106701;1283;58313;-82
2023/05/31 03:05:17;;;;;;;14.20;6.20;;;;;;;17.54;100.00;100757.34;107021;1282;58303;-81
2023/05/31 03:07:43;;;;;;;13.50;6.20;;;;;;;17.60;100.00;100759.23;107119;1282;58735;-82
2023/05/31 03:10:10;;;;;;;10.80;6.20;;;;;;;17.67;100.00;100752.56;107046;1283;74286;-81
2023/05/31 03:12:35;;;;;;;13.40;6.10;;;;;;;17.70;100.00;100750.17;107029;1282;73615;-82
2023/05/31 03:15:02;;;;;;;9.80;6.10;;;;;;;17.74;100.00;100752.30;107039;1282;59438;-83
2023/05/31 03:17:28;;;;;;;17.80;5.80;;;;;;;17.78;100.00;100755.13;107067;1283;58134;-81
2023/05/31 03:19:53;;;;;;;12.30;6.10;;;;;;;17.83;100.00;100754.27;106749;1283;58313;-81
2023/05/31 03:22:20;;;;;;;10.90;6.10;;;;;;;17.88;100.00;100757.87;107033;1283;58474;-81
2023/05/31 03:24:46;;;;;;;13.30;5.90;;;;;;;17.97;100.00;100759.48;106585;1288;58233;-82
2023/05/31 03:27:13;;;;;;;11.40;5.50;;;;;;;18.02;100.00;100761.35;106545;1288;58730;-82
2023/05/31 03:29:42;;;;;;;14.40;5.90;;;;;;;18.06;100.00;100762.29;106603;1289;58409;-81
2023/05/31 03:32:07;;;;;;;13.10;5.70;;;;;;;18.07;100.00;100764.35;106493;1288;58630;-82
2023/05/31 03:34:33;;;;;;;11.20;5.50;;;;;;;18.04;100.00;100767.89;106442;1288;58304;-82
2023/05/31 03:36:59;;;;;;;13.30;6.10;;;;;;;18.03;100.00;100764.77;106499;1287;58352;-82
2023/05/31 03:39:25;;;;;;;13.10;6.00;;;;;;;18.04;100.00;100767.51;106543;1288;58222;-82
2023/05/31 03:41:51;;;;;;;10.90;5.70;;;;;;;18.06;100.00;100767.14;106582;1287;58398;-82
2023/05/31 03:44:16;;;;;;;12.50;6.20;;;;;;;18.15;100.00;100763.95;106622;1288;58345;-82
2023/05/31 03:46:41;;;;;;;11.20;5.50;;;;;;;18.17;100.00;100768.48;106555;1288;58267;-83
2023/05/31 03:49:07;;;;;;;10.20;5.50;;;;;;;18.18;100.00;100765.03;106524;1289;58644;-82
2023/05/31 03:51:33;;;;;;;12.80;6.80;;;;;;;18.21;100.00;100769.73;106529;1288;58584;-82
2023/05/31 03:53:58;;;;;;;15.20;6.10;;;;;;;18.29;100.00;100768.38;106568;1287;58333;-82
2023/05/31 03:56:24;;;;;;;15.50;6.00;;;;;;;18.32;100.00;100769.70;106743;1287;58319;-82
2023/05/31 03:58:49;;;;;;;15.90;6.40;;;;;;;18.32;100.00;100766.42;106821;1285;61077;-82
2023/05/31 04:01:15;;;;;;;14.90;6.30;;;;;;;18.36;100.00;100765.71;106877;1285;58535;-82
2023/05/31 04:03:41;;;;;;;12.90;5.70;;;;;;;18.49;100.00;100765.48;106902;1285;58589;-82
2023/05/31 04:09:28;;;;;;;16.40;5.30;;;;;;;18.65;100.00;100770.73;106852;1285;72413;-82
2023/05/31 04:11:53;;;;;;;12.60;5.20;;;;;;;18.71;100.00;100771.88;106904;1285;58308;-83
2023/05/31 04:14:19;;;;;;;11.50;5.20;;;;;;;18.74;100.00;100769.86;106899;1285;58307;-82
2023/05/31 04:16:44;;;;;;;13.90;5.60;;;;;;;18.71;100.00;100773.92;106891;1285;58300;-83
2023/05/31 04:19:10;;;;;;;10.30;5.90;;;;;;;18.64;100.00;100773.36;106867;1286;58179;-82
2023/05/31 04:21:36;;;;;;;12.90;5.70;;;;;;;18.60;100.00;100777.92;106524;1287;62422;-82
2023/05/31 04:24:01;;;;;;;10.00;5.10;;;;;;;18.57;100.00;100779.85;106950;1282;58233;-84
2023/05/31 04:26:28;;;;;;;12.20;5.20;;;;;;;18.57;100.00;100784.55;106935;1283;58498;-83
2023/05/31 04:28:54;;;;;;;12.40;5.40;;;;;;;18.56;100.00;100786.97;107061;1283;58281;-83
2023/05/31 04:31:30;;;;;;;11.70;5.20;;;;;;;18.59;100.00;100784.62;107031;1283;58364;-82
2023/05/31 04:33:56;;;;;;;15.70;5.80;;;;;;;18.65;100.00;100783.68;107025;1283;62617;-84
2023/05/31 04:36:26;;;;;;;11.40;5.60;;;;;;;18.68;100.00;100780.92;106614;1289;59043;-83
2023/05/31 04:38:54;;;;;;;14.40;6.40;;;;;;;18.67;100.00;100779.35;106529;1287;73411;-83
2023/05/31 04:41:24;;;;;;;11.30;5.70;;;;;;;18.77;100.00;100780.45;106545;1289;73503;-82
2023/05/31 04:43:50;;;;;;;16.30;5.60;;;;;;;18.88;100.00;100787.25;106518;1289;72576;-83
2023/05/31 04:46:16;;;;;;;20.10;5.70;;;;;;;19.00;100.00;100786.12;106256;1289;58654;-83
2023/05/31 04:48:43;;;;;;;9.90;5.10;;;;;;;19.13;100.00;100788.54;106538;1289;58244;-83
2023/05/31 04:51:09;;;;;;;12.90;4.70;;;;;;;19.29;100.00;100786.95;106570;1287;58577;-83
2023/05/31 04:53:35;;;;;;;11.60;5.40;;;;;;;19.50;100.00;100790.42;106591;1288;58326;-83
2023/05/31 04:56:06;;;;;;;15.60;5.90;;;;;;;19.67;100.00;100793.14;106523;1286;58280;-82
2023/05/31 04:58:32;;;;;;;11.70;5.20;;;;;;;19.68;100.00;100794.95;106517;1287;61791;-84
2023/05/31 05:01:00;;;;;;;8.60;5.00;;;;;;;19.78;100.00;100797.58;106568;1288;58250;-83
2023/05/31 05:03:26;;;;;;;10.70;4.60;;;;;;;19.94;100.00;100794.29;106281;1289;74666;-83
2023/05/31 05:05:52;;;;;;;12.90;4.60;;;;;;;20.07;100.00;100798.04;106431;1288;58305;-83
2023/05/31 05:08:20;;;;;;;8.00;4.50;;;;;;;20.24;100.00;100800.16;106575;1287;58372;-83
2023/05/31 05:10:46;;;;;;;9.90;4.80;;;;;;;20.38;100.00;100795.16;106921;1283;62785;-83
2023/05/31 05:13:12;;;;;;;14.90;5.30;;;;;;;20.54;100.00;100798.13;107071;1282;58435;-84
2023/05/31 05:15:37;;;;;;;13.00;4.40;;;;;;;20.68;100.00;100797.58;107061;1283;58315;-83
2023/05/31 05:18:03;;;;;;;13.50;4.80;;;;;;;20.82;100.00;100794.29;106626;1282;58458;-84
2023/05/31 05:20:28;;;;;;;14.00;5.00;;;;;;;20.98;100.00;100796.87;107056;1283;58271;-83
2023/05/31 05:22:54;;;;;;;9.60;4.70;;;;;;;21.21;100.00;100795.57;106993;1283;58318;-84
2023/05/31 05:25:21;;;;;;;10.20;4.70;;;;;;;21.49;100.00;100797.23;107056;1283;58777;-83
2023/05/31 05:27:47;;;;;;;9.90;5.10;;;;;;;21.93;100.00;100802.88;107096;1282;58175;-84
2023/05/31 05:30:13;;;;;;;13.30;5.00;;;;;;;22.14;100.00;100804.48;107007;1283;72288;-84
2023/05/31 05:32:39;;;;;;;12.20;4.60;;;;;;;22.25;100.00;100802.39;107069;1283;58607;-84
2023/05/31 05:35:06;;;;;;;11.80;5.00;;;;;;;22.36;100.00;100800.88;106673;1286;58280;-84
2023/05/31 05:37:31;;;;;;;12.00;5.40;;;;;;;22.45;100.00;100802.92;106441;1285;58402;-84
2023/05/31 05:39:59;;;;;;;7.70;4.20;;;;;;;22.87;100.00;100800.27;106428;1289;58658;-85
2023/05/31 05:42:25;;;;;;;9.20;4.60;;;;;;;23.47;100.00;100798.65;106404;1285;58596;-84
2023/05/31 05:44:51;;;;;;;14.80;4.70;;;;;;;24.08;100.00;100795.41;106678;1285;58493;-85
2023/05/31 05:47:16;;;;;;;9.50;4.50;;;;;;;25.07;100.00;100793.86;106421;1285;58302;-83
2023/05/31 05:49:42;;;;;;;11.80;4.20;;;;;;;26.31;100.00;100798.66;106712;1287;58336;-85
2023/05/31 05:52:08;;;;;;;10.90;4.30;;;;;;;27.19;99.99;100796.24;106719;1285;58425;-84
2023/05/31 05:54:33;;;;;;;10.30;4.40;;;;;;;27.95;94.56;100794.67;106665;1286;59964;-83
2023/05/31 05:56:59;;;;;;;14.70;4.70;;;;;;;28.21;84.13;100792.67;106470;1285;58258;-85
2023/05/31 05:59:25;;;;;;;10.10;4.40;;;;;;;28.27;79.85;100796.39;106713;1285;58187;-85
2023/05/31 06:01:50;;;;;;;8.40;4.70;;;;;;;28.29;79.82;100798.72;106306;1286;58585;-84
2023/05/31 06:04:16;;;;;;;6.40;4.50;;;;;;;28.84;80.13;100800.29;106807;1285;58295;-84
2023/05/31 06:06:42;;;;;;;10.40;4.20;;;;;;;29.32;73.15;100804.69;106934;1283;58256;-85
2023/05/31 06:09:07;;;;;;;12.60;4.60;;;;;;;28.86;69.01;100801.98;106715;1283;72379;-85
2023/05/31 06:11:33;;;;;;;6.90;4.80;;;;;;;28.81;71.18;100800.02;107085;1283;58612;-85
2023/05/31 06:13:58;;;;;;;8.40;4.60;;;;;;;29.29;71.51;100798.00;107175;1282;58322;-85
2023/05/31 06:16:27;;;;;;;8.40;4.60;;;;;;;29.96;70.28;100798.07;107197;1282;58142;-86
2023/05/31 06:18:53;;;;;;;6.00;4.10;;;;;;;30.65;67.58;100799.30;106890;1283;58146;-85
2023/05/31 06:21:18;;;;;;;8.90;3.80;;;;;;;30.59;60.63;100798.27;107068;1283;58263;-84
2023/05/31 06:23:44;;;;;;;8.10;3.90;;;;;;;30.20;59.91;100802.75;106826;1282;59162;-86
2023/05/31 06:26:11;;;;;;;10.90;3.70;;;;;;;29.91;59.36;100806.94;106838;1283;58841;-85
2023/05/31 06:28:36;;;;;;;7.20;4.20;;;;;;;29.77;58.92;100806.92;107175;1281;58627;-85
2023/05/31 06:31:02;;;;;;;7.30;3.60;;;;;;;29.88;59.28;100807.63;106911;1283;58695;-85
2023/05/31 06:33:28;;;;;;;5.80;3.70;;;;;;;30.18;59.17;100805.83;107215;1282;73454;-85
2023/05/31 06:35:54;;;;;;;8.10;3.90;;;;;;;30.30;58.35;100810.20;107158;1282;58294;-86
2023/05/31 06:38:21;;;;;;;9.90;4.30;;;;;;;30.80;57.58;100810.98;107174;1282;58342;-85
2023/05/31 06:40:47;;;;;;;13.10;3.50;;;;;;;31.14;57.70;100812.10;106789;1285;58728;-85
2023/05/31 06:43:15;;;;;;;9.30;3.30;;;;;;;31.43;55.73;100812.64;106522;1286;58347;-87
2023/05/31 06:45:41;;;;;;;8.50;3.70;;;;;;;31.81;54.93;100809.29;106792;1285;58603;-87
2023/05/31 06:48:09;;;;;;;10.60;3.90;;;;;;;31.84;52.43;100807.61;106784;1285;58568;-86
2023/05/31 06:50:34;;;;;;;9.30;3.60;;;;;;;31.51;51.99;100807.79;106585;1286;59345;-86
2023/05/31 06:53:00;;;;;;;8.60;3.40;;;;;;;31.56;51.04;100810.33;106459;1286;58638;-85
2023/05/31 06:55:26;;;;;;;6.30;3.70;;;;;;;31.68;49.45;100807.54;106772;1285;58614;-86
2023/05/31 06:57:51;;;;;;;9.10;3.40;;;;;;;31.32;48.23;100809.58;106825;1285;58576;-87
2023/05/31 07:00:20;;;;;;;7.10;3.10;;;;;;;30.92;49.05;100810.63;106811;1285;58267;-86
2023/05/31 07:02:45;;;;;;;5.10;3.50;;;;;;;30.97;49.69;100812.71;106561;1286;58523;-86
2023/05/31 07:05:11;;;;;;;4.80;3.30;;;;;;;31.31;50.87;100812.21;106806;1285;58340;-85
2023/05/31 07:07:36;;;;;;;6.20;3.20;;;;;;;31.64;48.39;100815.02;106823;1285;58382;-87
2023/05/31 07:10:02;;;;;;;5.80;3.20;;;;;;;31.74;48.55;100812.31;106858;1285;58414;-87
2023/05/31 07:12:28;;;;;;;10.10;3.30;;;;;;;31.65;47.14;100807.06;106712;1285;60543;-86
2023/05/31 07:14:54;;;;;;;13.90;3.70;;;;;;;31.48;48.34;100813.20;107229;1282;58268;-86
2023/05/31 07:17:19;;;;;;;8.80;3.60;;;;;;;31.74;48.99;100810.23;107191;1282;58713;-86
2023/05/31 07:19:48;;;;;;;9.00;3.30;;;;;;;31.68;47.53;100818.27;107061;1283;58677;-87
2023/05/31 07:22:15;;;;;;;8.30;3.40;;;;;;;30.87;45.35;100818.14;107152;1282;58330;-86
2023/05/31 07:24:42;;;;;;;7.30;2.90;;;;;;;30.20;45.85;100815.30;107125;1282;58197;-88
2023/05/31 07:27:08;;;;;;;6.00;2.90;;;;;;;30.24;46.29;100817.00;107174;1281;59971;-88
2023/05/31 07:29:34;;;;;;;3.80;2.90;;;;;;;29.70;44.80;100815.56;107192;1282;58137;-87
2023/05/31 07:32:00;;;;;;;6.30;3.00;;;;;;;29.18;45.63;100817.97;107199;1282;58272;-85
2023/05/31 07:34:26;;;;;;;6.10;3.40;;;;;;;29.45;46.94;100818.61;106805;1283;58739;-86
2023/05/31 07:36:51;;;;;;;7.80;3.50;;;;;;;29.74;46.60;100819.59;106857;1282;58694;-86
2023/05/31 07:39:18;;;;;;;5.10;2.90;;;;;;;30.01;46.50;100822.40;107210;1282;58223;-86
2023/05/31 07:41:43;;;;;;;5.50;2.80;;;;;;;30.14;45.84;100820.58;107148;1282;58258;-86
2023/05/31 07:44:09;;;;;;;7.30;3.10;;;;;;;30.47;45.49;100819.50;107083;1281;58280;-84
2023/05/31 07:46:35;;;;;;;6.20;3.00;;;;;;;30.65;45.17;100823.70;107220;1281;58309;-87
2023/05/31 07:49:02;;;;;;;11.70;2.90;;;;;;;30.80;44.36;100828.16;106796;1283;60012;-87
2023/05/31 07:51:29;;;;;;;7.50;3.20;;;;;;;30.70;43.83;100826.52;107072;1283;74956;-89
2023/05/31 07:53:55;;;;;;;6.70;2.90;;;;;;;30.97;44.43;100826.86;106882;1283;73982;-88
2023/05/31 07:56:20;;;;;;;8.10;3.00;;;;;;;31.33;43.72;100827.26;107189;1282;58190;-89
2023/05/31 07:58:46;;;;;;;7.60;3.10;;;;;;;31.36;43.37;100824.02;107184;1281;58219;-88
2023/05/31 08:01:12;;;;;;;6.70;2.80;;;;;;;31.57;43.50;100826.25;107072;1283;58226;-89
2023/05/31 08:03:38;;;;;;;3.80;2.80;;;;;;;31.65;42.79;100823.14;107249;1282;58334;-91
2023/05/31 08:06:04;;;;;;;7.20;3.10;;;;;;;31.66;42.77;100834.20;107072;1283;58274;-89
2023/05/31 08:08:32;;;;;;;6.10;2.90;;;;;;;32.02;42.28;100829.58;106836;1283;59031;-87
2023/05/31 08:10:58;;;;;;;11.60;2.30;;;;;;;32.21;42.04;100827.14;107188;1281;58283;-88
2023/05/31 08:13:24;;;;;;;6.40;2.80;;;;;;;32.36;42.18;100828.30;107205;1282;58302;-88
2023/05/31 08:15:51;;;;;;;6.40;3.00;;;;;;;32.72;40.95;100824.27;107233;1282;58499;-87
2023/05/31 08:18:17;;;;;;;5.40;2.30;;;;;;;33.04;40.74;100822.19;107214;1282;58683;-89
2023/05/31 08:20:43;;;;;;;4.70;2.70;;;;;;;33.07;40.29;100821.64;107102;1283;58201;-91
2023/05/31 08:23:09;;;;;;;4.20;2.70;;;;;;;33.27;39.65;100818.95;107256;1281;58157;-87
2023/05/31 08:25:34;;;;;;;4.80;2.80;;;;;;;33.13;39.51;100818.88;107110;1281;74568;-89
2023/05/31 08:28:00;;;;;;;5.70;2.70;;;;;;;33.10;38.75;100813.80;106876;1283;58578;-87
2023/05/31 08:30:26;;;;;;;8.60;2.80;;;;;;;32.99;39.25;100814.02;107079;1281;58247;-90
2023/05/31 08:32:53;;;;;;;4.60;2.70;;;;;;;32.76;39.49;100816.92;106988;1283;58190;-91
2023/05/31 08:35:18;;;;;;;5.70;2.60;;;;;;;32.60;39.38;100820.74;107073;1281;58290;-89
2023/05/31 08:37:45;;;;;;;10.70;3.00;;;;;;;32.57;38.61;100821.55;106972;1282;58504;-89
2023/05/31 08:40:11;;;;;;;5.10;2.50;;;;;;;32.75;40.12;100819.23;106965;1282;58322;-87
2023/05/31 08:42:42;;;;;;;5.50;2.70;;;;;;;32.75;38.46;100816.52;107096;1283;58686;-89
2023/05/31 08:45:10;;;;;;;4.50;2.80;;;;;;;32.69;38.66;100821.81;107079;1281;61591;-87
2023/05/31 08:47:46;;;;;;;3.60;2.80;;;;;;;32.24;38.07;100819.73;107242;1282;73927;-89
2023/05/31 08:50:12;;;;;;;6.30;2.60;;;;;;;31.72;38.50;100820.27;107083;1282;74279;-88
2023/05/31 08:52:39;;;;;;;4.30;2.30;;;;;;;31.19;39.70;100823.88;106671;1286;58339;-88
2023/05/31 08:55:06;;;;;;;4.90;2.70;;;;;;;31.14;40.36;100823.63;106732;1285;61161;-89
2023/05/31 08:57:33;;;;;;;8.10;2.70;;;;;;;30.86;39.84;100819.75;106531;1286;58781;-88
2023/05/31 09:00:08;;;;;;;4.60;2.80;;;;;;;30.85;40.74;100818.72;106589;1285;74498;-86
2023/05/31 09:02:34;;;;;;;6.10;2.60;;;;;;;31.22;41.02;100817.85;106810;1286;74374;-89
2023/05/31 09:05:02;;;;;;;10.20;2.30;;;;;;;31.63;39.55;100813.19;106458;1288;72103;-87
2023/05/31 09:07:27;;;;;;;6.80;2.70;;;;;;;32.00;40.50;100812.75;106524;1288;61105;-90
2023/05/31 09:09:53;;;;;;;9.00;2.60;;;;;;;32.37;39.94;100812.52;106525;1287;58689;-87
2023/05/31 09:12:19;;;;;;;5.30;2.40;;;;;;;32.73;40.28;100811.90;106411;1287;58319;-89
2023/05/31 09:14:45;;;;;;;5.70;2.30;;;;;;;33.23;39.45;100812.91;106254;1287;58352;-88
2023/05/31 09:17:10;;;;;;;5.20;2.40;;;;;;;33.01;37.80;100813.20;106487;1287;58384;-89
2023/05/31 09:19:41;;;;;;;5.50;2.50;;;;;;;32.74;39.69;100814.30;106447;1287;58551;-87
2023/05/31 09:22:06;;;;;;;8.70;2.60;;;;;;;32.79;39.59;100815.70;106381;1289;74684;-86
2023/05/31 09:24:32;;;;;;;7.20;2.20;;;;;;;32.51;38.66;100811.61;106438;1285;58398;-90
2023/05/31 09:27:00;;;;;;;9.80;2.30;;;;;;;32.65;39.44;100802.54;106573;1285;58326;-87
2023/05/31 09:29:26;;;;;;;3.60;2.50;;;;;;;32.38;38.04;100809.48;106688;1285;60064;-88
2023/05/31 09:32:08;;;;;;;5.40;2.30;;;;;;;31.88;38.76;100809.28;106697;1285;58742;-91
2023/05/31 09:34:34;;;;;;;10.10;3.00;;;;;;;31.60;38.44;100807.78;106603;1285;74493;-89
2023/05/31 09:36:59;;;;;;;4.00;2.50;;;;;;;31.13;39.21;100806.45;106536;1286;58519;-88
2023/05/31 09:39:25;;;;;;;7.50;2.40;;;;;;;30.86;40.21;100799.56;106774;1283;58283;-88
2023/05/31 09:41:51;;;;;;;4.10;2.30;;;;;;;31.03;39.85;100808.34;106988;1282;58231;-88
2023/05/31 09:44:17;;;;;;;2.70;1.90;;;;;;;30.73;38.78;100803.09;107121;1281;58343;-89
2023/05/31 09:46:46;;;;;;;5.90;2.40;;;;;;;30.38;39.37;100803.09;106778;1282;58560;-90
2023/05/31 09:49:12;;;;;;;4.10;2.30;;;;;;;30.36;39.87;100797.36;107187;1282;58269;-91
2023/05/31 09:51:38;;;;;;;4.20;2.40;;;;;;;30.48;40.87;100798.85;106804;1285;58375;-88
2023/05/31 09:54:25;;;;;;;9.00;2.10;;;;;;;30.56;40.18;100802.13;106412;1285;58723;-88
2023/05/31 09:56:51;;;;;;;3.70;2.30;;;;;;;30.20;39.96;100802.59;106843;1285;61101;-85
2023/05/31 09:59:17;;;;;;;9.50;2.50;;;;;;;30.15;39.70;100803.66;106802;1285;58365;-86
2023/05/31 10:01:44;;;;;;;6.10;2.50;;;;;;;30.19;39.91;100800.51;106766;1285;58297;-88
2023/05/31 10:04:10;;;;;;;5.50;2.40;;;;;;;30.31;40.37;100800.67;106683;1285;58412;-89
2023/05/31 10:06:37;;;;;;;4.20;2.40;;;;;;;30.36;40.96;100801.65;106721;1285;58695;-87
2023/05/31 10:09:07;;;;;;;5.70;2.30;;;;;;;30.19;40.05;100804.89;106344;1289;58272;-87
2023/05/31 10:11:35;;;;;;;5.40;2.20;;;;;;;29.85;40.66;100803.39;106271;1289;73236;-86
2023/05/31 10:14:03;;;;;;;5.60;2.40;;;;;;;30.02;41.03;100790.16;106352;1289;74287;-89
2023/05/31 10:16:43;;;;;;;4.70;2.10;;;;;;;30.17;41.31;100797.95;106293;1289;73116;-87
2023/05/31 10:19:13;;;;;;;3.90;2.00;;;;;;;29.91;40.25;100798.59;106245;1289;60190;-88
2023/05/31 10:21:43;;;;;;;5.00;2.10;;;;;;;29.41;40.13;100801.28;106269;1289;60917;-87
2023/05/31 10:24:23;;;;;;;4.10;2.20;;;;;;;29.29;41.20;100790.37;106536;1285;74734;-86
2023/05/31 10:27:08;;;;;;;7.50;2.30;;;;;;;29.79;42.38;100789.30;106567;1285;74967;-88
2023/05/31 10:29:40;;;;;;;8.20;2.80;;;;;;;30.22;40.70;100792.05;106708;1285;73653;-89
2023/05/31 10:32:20;;;;;;;6.30;2.20;;;;;;;30.07;40.10;100793.13;106713;1285;60086;-90
2023/05/31 10:34:47;;;;;;;4.40;2.40;;;;;;;30.02;39.78;100789.37;106710;1285;60350;-87
2023/05/31 10:37:13;;;;;;;9.30;2.30;;;;;;;29.81;41.46;100785.90;106415;1285;74762;-89
2023/05/31 10:39:49;;;;;;;3.20;2.00;;;;;;;29.84;41.55;100789.50;106725;1282;58546;-87
2023/05/31 10:42:25;;;;;;;3.60;2.00;;;;;;;29.45;39.50;100785.60;107043;1282;72602;-88
2023/05/31 10:45:00;;;;;;;4.30;2.10;;;;;;;28.89;39.20;100788.85;107160;1281;61180;-89
2023/05/31 10:47:34;;;;;;;6.80;2.40;;;;;;;28.53;38.84;100783.27;107189;1281;60929;-86
2023/05/31 10:50:01;;;;;;;4.50;2.30;;;;;;;28.05;39.46;100780.80;107205;1282;73757;-84
2023/05/31 10:52:30;;;;;;;4.80;2.70;;;;;;;27.74;39.53;100779.39;107207;1282;73547;-85
2023/05/31 10:55:22;;;;;;;5.70;2.10;;;;;;;27.69;40.79;100779.63;107050;1282;73198;-84
2023/05/31 10:57:56;;;;;;;3.80;2.00;;;;;;;27.79;41.49;100774.48;106689;1285;60139;-85
2023/05/31 11:00:23;;;;;;;6.30;2.40;;;;;;;27.95;40.81;100774.10;106772;1285;59872;-86
2023/05/31 11:02:51;;;;;;;3.90;2.20;;;;;;;27.64;40.71;100775.41;106676;1286;74595;-83
2023/05/31 11:05:24;;;;;;;7.90;2.20;;;;;;;27.65;41.22;100767.77;106803;1285;73300;-85
2023/05/31 11:07:51;;;;;;;5.10;2.00;;;;;;;27.87;41.91;100766.14;106684;1286;73718;-88
2023/05/31 11:10:27;;;;;;;4.20;1.90;;;;;;;28.06;40.90;100762.29;106703;1286;60282;-87
2023/05/31 11:12:56;;;;;;;5.80;2.30;;;;;;;28.27;40.88;100761.08;106712;1285;60081;-89